Dan Fighter — OVUE2 — position and weather

sailwx.info

Track history (hours):
 
Tides and Currents Weather Stations Pressure Air Temp Water Temp Dewpoint Dewpoint Depression Visibility Wind Speed Wind Dir Waves Ship Positions

Dan Fighter

Last reported at 2016-May-29 16:33 UTC. Time now 2016-May-29 17:23 UTC.
Position N 57°03' E 009°56'.

Length 64 m; draft 3.1 m.

Type: Cargo ship. MMSI: 220386978.

Date/timePositionNaut miles runAvg speedWind from/ knotsBaromVisibWave heightAir tempDewpointWater temp
2016-May-29 16:33N 57°03' E 009°56'0 0.0
2016-May-29 15:33N 57°03' E 009°56'0 0.0
2016-May-29 14:29N 57°03' E 009°56'0 0.0
2016-May-29 13:32N 57°03' E 009°56'0 0.0
2016-May-29 12:32N 57°03' E 009°56'0 0.0
2016-May-29 11:33N 57°03' E 009°56'0 0.0
2016-May-29 10:32N 57°03' E 009°56'0 0.0
2016-May-29 09:33N 57°03' E 009°56'0 0.0
2016-May-29 08:33N 57°03' E 009°56'0 0.0
2016-May-29 07:33N 57°03' E 009°56'0 0.0
2016-May-29 06:33N 57°03' E 009°56'0 0.0
2016-May-29 05:33N 57°03' E 009°56'0 0.0
2016-May-29 04:33N 57°03' E 009°56'0 0.0
2016-May-29 03:30N 57°03' E 009°56'0 0.0
2016-May-29 02:33N 57°03' E 009°56'0 0.0
2016-May-29 01:33N 57°03' E 009°56'0 0.0
2016-May-29 00:30N 57°03' E 009°56'0 0.0
2016-May-28 23:33N 57°03' E 009°56'0 0.0
2016-May-28 22:33N 57°03' E 009°56'0 0.0
2016-May-28 21:33N 57°03' E 009°56'0 0.0
2016-May-28 20:33N 57°03' E 009°56'0 0.0
2016-May-28 19:33N 57°03' E 009°56'0 0.0
2016-May-28 18:33N 57°03' E 009°56'0 0.0
2016-May-28 17:33N 57°03' E 009°56'0 0.0
2016-May-28 16:33N 57°03' E 009°56'0 0.0
2016-May-28 15:33N 57°03' E 009°56'0 0.0
2016-May-28 14:33N 57°03' E 009°56'0 0.0
2016-May-28 13:33N 57°03' E 009°56'0 0.0
2016-May-28 12:33N 57°03' E 009°56'0 0.0
2016-May-28 11:33N 57°03' E 009°56'0 0.0
2016-May-28 10:33N 57°03' E 009°56'0 0.0
2016-May-28 09:33N 57°03' E 009°56'3 3.4
2016-May-28 08:33N 57°05' E 010°01'9 8.6
2016-May-28 07:33N 56°59' E 010°13'101 7.1
2016-May-27 17:22N 55°22' E 011°03'7 7.7
2016-May-27 16:29N 55°17' E 011°11'7 7.9
2016-May-27 15:34N 55°10' E 011°16'8 8.1
2016-May-27 14:33N 55°04' E 011°25'9 8.6
2016-May-27 13:30N 54°58' E 011°38'7 7.9
2016-May-27 12:33N 54°52' E 011°45'6 5.4
2016-May-27 11:28N 54°47' E 011°50'1 1.4
2016-May-27 10:31N 54°46' E 011°52'0 0.0
2016-May-27 09:31N 54°46' E 011°52'0 0.0
2016-May-27 08:28N 54°46' E 011°52'0 0.0
2016-May-27 07:31N 54°46' E 011°52'0 0.0
2016-May-27 06:31N 54°46' E 011°52'0 0.0
2016-May-27 05:13N 54°46' E 011°52'0 0.0
2016-May-27 04:31N 54°46' E 011°52'0 0.0
2016-May-27 03:31N 54°46' E 011°52'0 0.0
2016-May-27 02:31N 54°46' E 011°52'0 0.0
2016-May-27 01:31N 54°46' E 011°52'0 0.0
2016-May-27 00:31N 54°46' E 011°52'0 0.0
2016-May-26 23:28N 54°46' E 011°52'0 0.0
2016-May-26 22:22N 54°46' E 011°52'0 0.0
2016-May-26 21:31N 54°46' E 011°52'0 0.0
2016-May-26 20:28N 54°46' E 011°52'0 0.0
2016-May-26 19:31N 54°46' E 011°52'0 0.0
2016-May-26 18:16N 54°46' E 011°52'0 0.3
2016-May-26 17:33N 54°46' E 011°52'5 5.2
2016-May-26 16:33N 54°51' E 011°47'7 7.0
2016-May-26 15:33N 54°56' E 011°40'16 6.6
2016-May-26 13:04N 54°53' E 012°08'5 9.1
2016-May-26 12:33N 54°50' E 012°12'10 9.6
2016-May-26 11:33N 54°52' E 012°29'10 9.4
2016-May-26 10:30N 54°53' E 012°45'10 9.7
2016-May-26 09:31N 54°55' E 013°02'10 9.4
2016-May-26 08:30N 54°57' E 013°18'11 9.4
2016-May-26 07:19N 54°60' E 013°37'7 9.3
2016-May-26 06:33N 55°02' E 013°49'9 9.4
2016-May-26 05:33N 55°04' E 014°05'9 8.7
2016-May-26 04:33N 55°11' E 014°14'9 8.6
2016-May-26 03:33N 55°17' E 014°24'9 8.5
2016-May-26 02:33N 55°24' E 014°33'9 8.7
2016-May-26 01:33N 55°29' E 014°46'9 9.0
2016-May-26 00:33N 55°34' E 014°60'9 9.0
2016-May-25 23:33N 55°39' E 015°13'219 7.7
2016-May-24 19:15N 58°26' E 019°31'7 9.5
2016-May-24 18:33N 58°32' E 019°37'  
Track history (hours):
 
Tides and Currents Weather Stations Pressure Air Temp Water Temp Dewpoint Dewpoint Depression Visibility Wind Speed Wind Dir Waves Ship Positions

Dan Fighter

Last reported at 2016-May-29 16:33 UTC. Time now 2016-May-29 17:23 UTC.
Position N 57°03' E 009°56'.

Length 64 m; draft 3.1 m.

Type: Cargo ship. MMSI: 220386978.

Date/timePositionNaut miles runAvg speedWind from/ knotsBaromVisibWave heightAir tempDewpointWater temp
2016-May-29 16:33N 57°03' E 009°56'0 0.0
2016-May-29 15:33N 57°03' E 009°56'0 0.0
2016-May-29 14:29N 57°03' E 009°56'0 0.0
2016-May-29 13:32N 57°03' E 009°56'0 0.0
2016-May-29 12:32N 57°03' E 009°56'0 0.0
2016-May-29 11:33N 57°03' E 009°56'0 0.0
2016-May-29 10:32N 57°03' E 009°56'0 0.0
2016-May-29 09:33N 57°03' E 009°56'0 0.0
2016-May-29 08:33N 57°03' E 009°56'0 0.0
2016-May-29 07:33N 57°03' E 009°56'0 0.0
2016-May-29 06:33N 57°03' E 009°56'0 0.0
2016-May-29 05:33N 57°03' E 009°56'0 0.0
2016-May-29 04:33N 57°03' E 009°56'0 0.0
2016-May-29 03:30N 57°03' E 009°56'0 0.0
2016-May-29 02:33N 57°03' E 009°56'0 0.0
2016-May-29 01:33N 57°03' E 009°56'0 0.0
2016-May-29 00:30N 57°03' E 009°56'0 0.0
2016-May-28 23:33N 57°03' E 009°56'0 0.0
2016-May-28 22:33N 57°03' E 009°56'0 0.0
2016-May-28 21:33N 57°03' E 009°56'0 0.0
2016-May-28 20:33N 57°03' E 009°56'0 0.0
2016-May-28 19:33N 57°03' E 009°56'0 0.0
2016-May-28 18:33N 57°03' E 009°56'0 0.0
2016-May-28 17:33N 57°03' E 009°56'0 0.0
2016-May-28 16:33N 57°03' E 009°56'0 0.0
2016-May-28 15:33N 57°03' E 009°56'0 0.0
2016-May-28 14:33N 57°03' E 009°56'0 0.0
2016-May-28 13:33N 57°03' E 009°56'0 0.0
2016-May-28 12:33N 57°03' E 009°56'0 0.0
2016-May-28 11:33N 57°03' E 009°56'0 0.0
2016-May-28 10:33N 57°03' E 009°56'0 0.0
2016-May-28 09:33N 57°03' E 009°56'3 3.4
2016-May-28 08:33N 57°05' E 010°01'9 8.6
2016-May-28 07:33N 56°59' E 010°13'101 7.1
2016-May-27 17:22N 55°22' E 011°03'7 7.7
2016-May-27 16:29N 55°17' E 011°11'7 7.9
2016-May-27 15:34N 55°10' E 011°16'8 8.1
2016-May-27 14:33N 55°04' E 011°25'9 8.6
2016-May-27 13:30N 54°58' E 011°38'7 7.9
2016-May-27 12:33N 54°52' E 011°45'6 5.4
2016-May-27 11:28N 54°47' E 011°50'1 1.4
2016-May-27 10:31N 54°46' E 011°52'0 0.0
2016-May-27 09:31N 54°46' E 011°52'0 0.0
2016-May-27 08:28N 54°46' E 011°52'0 0.0
2016-May-27 07:31N 54°46' E 011°52'0 0.0
2016-May-27 06:31N 54°46' E 011°52'0 0.0
2016-May-27 05:13N 54°46' E 011°52'0 0.0
2016-May-27 04:31N 54°46' E 011°52'0 0.0
2016-May-27 03:31N 54°46' E 011°52'0 0.0
2016-May-27 02:31N 54°46' E 011°52'0 0.0
2016-May-27 01:31N 54°46' E 011°52'0 0.0
2016-May-27 00:31N 54°46' E 011°52'0 0.0
2016-May-26 23:28N 54°46' E 011°52'0 0.0
2016-May-26 22:22N 54°46' E 011°52'0 0.0
2016-May-26 21:31N 54°46' E 011°52'0 0.0
2016-May-26 20:28N 54°46' E 011°52'0 0.0
2016-May-26 19:31N 54°46' E 011°52'0 0.0
2016-May-26 18:16N 54°46' E 011°52'0 0.3
2016-May-26 17:33N 54°46' E 011°52'5 5.2
2016-May-26 16:33N 54°51' E 011°47'7 7.0
2016-May-26 15:33N 54°56' E 011°40'16 6.6
2016-May-26 13:04N 54°53' E 012°08'5 9.1
2016-May-26 12:33N 54°50' E 012°12'10 9.6
2016-May-26 11:33N 54°52' E 012°29'10 9.4
2016-May-26 10:30N 54°53' E 012°45'10 9.7
2016-May-26 09:31N 54°55' E 013°02'10 9.4
2016-May-26 08:30N 54°57' E 013°18'11 9.4
2016-May-26 07:19N 54°60' E 013°37'7 9.3
2016-May-26 06:33N 55°02' E 013°49'9 9.4
2016-May-26 05:33N 55°04' E 014°05'9 8.7
2016-May-26 04:33N 55°11' E 014°14'9 8.6
2016-May-26 03:33N 55°17' E 014°24'9 8.5
2016-May-26 02:33N 55°24' E 014°33'9 8.7
2016-May-26 01:33N 55°29' E 014°46'9 9.0
2016-May-26 00:33N 55°34' E 014°60'9 9.0
2016-May-25 23:33N 55°39' E 015°13'219 7.7
2016-May-24 19:15N 58°26' E 019°31'7 9.5
2016-May-24 18:33N 58°32' E 019°37'  

Dump ship's entire track history